createdAt,value
2023-01-30T00:04:42.303Z,11.80
2023-01-30T00:10:11.104Z,15.20
2023-01-30T00:15:57.691Z,10.50
2023-01-30T00:21:08.087Z,13.40
2023-01-30T00:26:49.602Z,11.90
2023-01-30T00:31:56.050Z,13.50
2023-01-30T00:37:20.202Z,13.20
2023-01-30T00:42:47.540Z,14.70
2023-01-30T00:47:51.340Z,10.80
2023-01-30T00:52:54.776Z,14.40
2023-01-30T00:58:19.003Z,12.80
2023-01-30T01:03:32.699Z,11.70
2023-01-30T01:08:38.975Z,10.80
2023-01-30T01:13:47.875Z,10.90
2023-01-30T01:18:56.953Z,11.00
2023-01-30T01:24:04.094Z,13.80
2023-01-30T01:29:17.056Z,11.60
2023-01-30T01:34:33.184Z,13.20
2023-01-30T01:40:00.719Z,13.20
2023-01-30T01:45:16.185Z,13.60
2023-01-30T01:50:53.280Z,11.90
2023-01-30T01:56:18.063Z,11.80
2023-01-30T02:01:22.142Z,14.60
2023-01-30T02:06:33.017Z,13.80
2023-01-30T02:12:04.530Z,10.70
2023-01-30T02:17:42.859Z,11.50
2023-01-30T02:23:31.502Z,11.20
2023-01-30T02:28:50.760Z,12.60
2023-01-30T02:34:46.529Z,10.70
2023-01-30T02:40:01.498Z,10.90
2023-01-30T02:45:49.225Z,12.20
2023-01-30T02:51:28.823Z,10.90
2023-01-30T02:56:48.265Z,13.40
2023-01-30T03:02:35.657Z,12.30
2023-01-30T03:08:53.703Z,12.50
2023-01-30T03:14:51.436Z,12.90
2023-01-30T03:20:06.457Z,11.50
2023-01-30T03:25:20.328Z,12.60
2023-01-30T03:30:29.251Z,10.80
2023-01-30T03:35:36.289Z,12.50
2023-01-30T03:40:43.001Z,11.30
2023-01-30T03:45:57.346Z,10.90
2023-01-30T03:51:14.504Z,11.80
2023-01-30T03:56:20.644Z,13.50
2023-01-30T04:01:37.170Z,9.40
2023-01-30T04:06:58.393Z,12.20
2023-01-30T04:12:13.466Z,13.80
2023-01-30T04:17:22.967Z,11.50
2023-01-30T04:22:45.225Z,11.30
2023-01-30T04:27:48.403Z,11.40
2023-01-30T04:32:55.347Z,13.10
2023-01-30T04:38:08.621Z,11.40
2023-01-30T04:43:15.044Z,11.00
2023-01-30T04:48:26.467Z,10.50
2023-01-30T04:53:48.728Z,11.50
2023-01-30T04:58:52.054Z,12.10
2023-01-30T05:03:58.017Z,11.10
2023-01-30T05:09:12.536Z,12.80
2023-01-30T05:14:27.285Z,12.30
2023-01-30T05:19:30.877Z,14.50
2023-01-30T05:24:57.574Z,11.40
2023-01-30T05:30:09.414Z,13.90
2023-01-30T05:35:12.964Z,7.50
2023-01-30T05:40:42.712Z,10.00
2023-01-30T05:46:17.057Z,10.10
2023-01-30T05:51:27.854Z,10.90
2023-01-30T05:56:34.960Z,11.30
2023-01-30T06:01:40.725Z,11.40
2023-01-30T06:06:43.784Z,10.50
2023-01-30T06:11:53.381Z,10.10
2023-01-30T06:16:59.002Z,9.60
2023-01-30T06:22:18.080Z,8.00
2023-01-30T06:27:21.300Z,8.80
2023-01-30T06:32:24.544Z,8.10
2023-01-30T06:37:33.610Z,7.50
2023-01-30T06:42:39.421Z,7.60
2023-01-30T06:47:54.986Z,7.70
2023-01-30T06:53:07.719Z,9.30
2023-01-30T06:58:17.480Z,8.90
2023-01-30T07:03:23.005Z,8.30
2023-01-30T07:08:44.580Z,7.20
2023-01-30T07:13:47.737Z,9.90
2023-01-30T07:18:50.838Z,10.20
2023-01-30T07:23:54.402Z,10.10
2023-01-30T07:29:07.420Z,9.70
2023-01-30T07:34:13.322Z,8.80
2023-01-30T07:39:19.398Z,7.20
2023-01-30T07:44:23.097Z,7.80
2023-01-30T07:49:26.942Z,7.60
2023-01-30T07:54:30.255Z,6.90
2023-01-30T07:59:33.372Z,8.90
2023-01-30T08:04:48.824Z,9.50
2023-01-30T08:09:52.519Z,14.00
2023-01-30T08:14:55.591Z,9.40
2023-01-30T08:27:25.417Z,11.50
2023-01-30T08:32:41.561Z,18.20
2023-01-30T08:37:50.649Z,19.50
2023-01-30T08:43:03.090Z,17.20
2023-01-30T08:48:07.434Z,10.60
2023-01-30T08:53:19.614Z,7.30
2023-01-30T08:58:30.658Z,8.80
2023-01-30T09:03:34.554Z,8.00
2023-01-30T09:08:38.521Z,18.80
2023-01-30T09:13:49.891Z,11.40
2023-01-30T09:18:53.271Z,8.80
2023-01-30T09:23:56.756Z,11.50
2023-01-30T09:29:03.042Z,6.90
2023-01-30T09:34:06.633Z,7.90
2023-01-30T09:39:09.649Z,6.70
2023-01-30T09:44:54.653Z,7.60
2023-01-30T09:50:31.741Z,7.30
2023-01-30T09:55:43.893Z,6.70
2023-01-30T10:00:51.097Z,8.70
2023-01-30T10:06:05.997Z,6.80
2023-01-30T10:11:30.220Z,8.40
2023-01-30T10:16:46.919Z,8.70
2023-01-30T10:22:21.359Z,7.40
2023-01-30T10:27:31.023Z,11.80
2023-01-30T10:38:24.655Z,14.70
2023-01-30T10:43:57.968Z,9.80
2023-01-30T10:49:03.508Z,15.30
2023-01-30T10:54:36.860Z,14.70
2023-01-30T10:59:54.336Z,8.70
2023-01-30T11:05:01.172Z,13.90
2023-01-30T11:10:17.242Z,9.60
2023-01-30T11:15:24.977Z,19.70
2023-01-30T11:20:28.095Z,24.00
2023-01-30T11:25:31.240Z,15.40
2023-01-30T11:30:37.293Z,18.00
2023-01-30T11:35:58.783Z,17.90
2023-01-30T11:41:22.835Z,12.70
2023-01-30T11:46:31.098Z,16.00
2023-01-30T11:51:36.699Z,20.80
2023-01-30T11:56:47.570Z,26.70
2023-01-30T12:01:50.867Z,23.20
2023-01-30T12:07:20.722Z,23.00
2023-01-30T12:12:30.237Z,21.10
2023-01-30T12:17:59.105Z,19.00
2023-01-30T12:23:08.087Z,17.00
2023-01-30T12:28:46.506Z,19.60
2023-01-30T12:33:49.753Z,13.30
2023-01-30T12:39:34.184Z,14.50
2023-01-30T12:45:11.969Z,13.30
2023-01-30T12:50:34.471Z,11.00
2023-01-30T12:55:58.175Z,13.20
2023-01-30T13:01:25.314Z,15.40
2023-01-30T13:07:09.323Z,13.30
2023-01-30T13:12:55.850Z,24.80
2023-01-30T13:18:20.699Z,16.00
2023-01-30T13:23:44.198Z,15.90
2023-01-30T13:28:56.441Z,16.00
2023-01-30T13:34:38.696Z,11.80
2023-01-30T13:40:16.953Z,15.90
2023-01-30T13:45:51.626Z,13.10
2023-01-30T13:51:30.254Z,15.00
2023-01-30T13:56:56.720Z,12.30
2023-01-30T14:02:10.358Z,20.30
2023-01-30T14:07:17.510Z,10.30
2023-01-30T14:12:25.298Z,9.60
2023-01-30T14:17:31.903Z,10.00
2023-01-30T14:22:58.283Z,11.50
2023-01-30T14:28:01.939Z,10.60
2023-01-30T14:33:39.767Z,10.50
2023-01-30T14:39:14.657Z,9.90
2023-01-30T14:45:05.391Z,10.20
2023-01-30T14:50:22.481Z,14.50
2023-01-30T14:55:42.270Z,12.30
2023-01-30T15:00:59.029Z,14.40
2023-01-30T15:06:02.372Z,38.60
2023-01-30T15:11:57.461Z,68.70
2023-01-30T15:17:35.277Z,37.60
2023-01-30T15:22:46.821Z,18.10
2023-01-30T15:28:33.949Z,19.60
2023-01-30T15:33:52.240Z,14.40
2023-01-30T15:39:16.520Z,24.20
2023-01-30T15:44:53.606Z,26.80
2023-01-30T15:50:09.274Z,10.90
2023-01-30T15:55:22.933Z,9.20
2023-01-30T16:00:33.587Z,12.10
2023-01-30T16:05:57.581Z,19.30
2023-01-30T16:11:01.608Z,48.70
2023-01-30T16:16:19.854Z,28.40
2023-01-30T16:21:35.616Z,20.50
2023-01-30T16:26:45.161Z,21.50
2023-01-30T16:31:52.569Z,17.00
2023-01-30T16:36:58.479Z,19.60
2023-01-30T16:42:18.859Z,17.10
2023-01-30T16:47:26.845Z,11.90
2023-01-30T16:52:45.770Z,8.60
2023-01-30T16:58:03.440Z,12.60
2023-01-30T17:03:29.837Z,13.70
2023-01-30T17:08:57.835Z,11.30
2023-01-30T17:14:39.704Z,8.50
2023-01-30T17:19:42.778Z,20.30
2023-01-30T17:24:46.077Z,14.70
2023-01-30T17:29:49.386Z,10.90
2023-01-30T17:34:52.445Z,10.00
2023-01-30T17:39:55.675Z,8.70
2023-01-30T17:45:00.000Z,11.10
2023-01-30T17:50:03.645Z,8.60
2023-01-30T17:55:08.006Z,13.60
2023-01-30T18:00:20.354Z,10.60
2023-01-30T18:05:24.194Z,12.60
2023-01-30T18:10:27.727Z,10.90
2023-01-30T18:15:30.951Z,11.30
2023-01-30T18:20:33.933Z,8.50
2023-01-30T18:25:37.298Z,9.70
2023-01-30T18:30:40.527Z,5.30
2023-01-30T18:35:43.624Z,7.20
2023-01-30T18:40:46.811Z,7.70
2023-01-30T18:46:03.009Z,5.80
2023-01-30T18:51:12.127Z,7.90
2023-01-30T18:56:21.588Z,6.80
2023-01-30T19:01:29.211Z,3.70
2023-01-30T19:06:40.331Z,5.60
2023-01-30T19:12:01.732Z,4.80
2023-01-30T19:17:04.749Z,5.00
2023-01-30T19:22:07.724Z,7.60
2023-01-30T19:27:14.056Z,5.10
2023-01-30T19:32:17.011Z,5.30
2023-01-30T19:37:19.987Z,4.00
2023-01-30T19:42:23.183Z,5.00
2023-01-30T19:47:26.121Z,7.40
2023-01-30T19:52:29.164Z,13.10
2023-01-30T19:57:32.160Z,7.90
2023-01-30T20:02:35.173Z,7.80
2023-01-30T20:07:38.624Z,7.60
2023-01-30T20:12:42.063Z,7.40
2023-01-30T20:17:45.071Z,7.40
2023-01-30T20:22:48.964Z,8.50
2023-01-30T20:27:52.364Z,6.90
2023-01-30T20:32:55.440Z,5.80
2023-01-30T20:37:58.507Z,5.20
2023-01-30T20:43:01.598Z,8.40
2023-01-30T20:48:04.837Z,5.10
2023-01-30T20:53:07.791Z,4.60
2023-01-30T20:58:10.877Z,4.90
2023-01-30T21:03:13.884Z,4.30
2023-01-30T21:08:17.900Z,5.00
2023-01-30T21:13:22.322Z,4.50
2023-01-30T21:18:26.309Z,4.80
2023-01-30T21:23:30.201Z,3.40
2023-01-30T21:28:33.839Z,2.60
2023-01-30T21:33:37.049Z,2.50
2023-01-30T21:38:58.984Z,2.40
2023-01-30T21:44:02.507Z,2.50
2023-01-30T21:49:08.482Z,1.50
2023-01-30T21:54:12.004Z,1.70
2023-01-30T21:59:15.545Z,2.30
2023-01-30T22:04:19.606Z,1.80
2023-01-30T22:09:22.708Z,1.10
2023-01-30T22:14:25.854Z,2.30
2023-01-30T22:19:35.452Z,2.10
2023-01-30T22:24:41.173Z,1.40
2023-01-30T22:29:49.154Z,2.30
2023-01-30T22:34:55.229Z,2.50
2023-01-30T22:40:10.450Z,2.10
2023-01-30T22:45:26.010Z,2.70
2023-01-30T22:50:29.197Z,1.80
2023-01-30T22:55:35.837Z,1.60
2023-01-30T23:00:39.462Z,1.80
2023-01-30T23:05:42.965Z,1.80
2023-01-30T23:10:46.586Z,1.50
2023-01-30T23:15:49.780Z,2.10
2023-01-30T23:21:01.860Z,2.40
2023-01-30T23:26:08.794Z,2.80
2023-01-30T23:31:18.317Z,2.00
2023-01-30T23:36:22.722Z,2.00
2023-01-30T23:41:33.011Z,2.00
2023-01-30T23:46:48.392Z,2.20
2023-01-30T23:51:57.653Z,1.60
2023-01-30T23:57:00.978Z,1.80
